Time;durP1;ratioP1;P1;durP2;ratioP2;P2;SDS_P1;SDS_P2;PMS_P1;PMS_P2;Temp;Humidity;BMP_temperature;BMP_pressure;BME280_temperature;BME280_humidity;BME280_pressure;Samples;Min_cycle;Max_cycle;Signal;HPM_P1;HPM_P2
2023/02/11 00:01:26;;;;;;;0.80;0.80;;;1.70;99.90;;;;;;5076371;28;20202;-71
2023/02/11 00:03:52;;;;;;;0.50;0.50;;;1.60;99.90;;;;;;5094417;28;20222;-70
2023/02/11 00:06:18;;;;;;;0.60;0.60;;;1.60;99.90;;;;;;5075628;28;20192;-70
2023/02/11 00:08:44;;;;;;;0.68;0.68;;;1.60;99.90;;;;;;5076714;28;20216;-70
2023/02/11 00:11:16;;;;;;;0.63;0.63;;;1.50;99.90;;;;;;5094758;28;20600;-70
2023/02/11 00:13:46;;;;;;;0.60;0.60;;;1.50;99.90;;;;;;5094467;28;20730;-70
2023/02/11 00:16:14;;;;;;;0.70;0.70;;;1.50;99.90;;;;;;5094724;28;20267;-71
2023/02/11 00:18:40;;;;;;;0.63;0.63;;;1.50;99.90;;;;;;5076248;28;20572;-70
2023/02/11 00:21:17;;;;;;;0.50;0.50;;;1.50;99.90;;;;;;5094657;28;20195;-71
2023/02/11 00:23:44;;;;;;;0.60;0.60;;;1.50;99.90;;;;;;5094485;28;20664;-71
2023/02/11 00:26:19;;;;;;;2.05;1.35;;;1.50;99.90;;;;;;5094553;28;20192;-70
2023/02/11 00:28:47;;;;;;;0.75;0.75;;;1.40;99.90;;;;;;5094313;28;20716;-70
2023/02/11 00:31:15;;;;;;;0.60;0.60;;;1.40;99.90;;;;;;5076256;28;20595;-70
2023/02/11 00:33:41;;;;;;;0.50;0.50;;;1.40;99.90;;;;;;5075842;28;20269;-71
2023/02/11 00:36:10;;;;;;;0.70;0.70;;;1.40;99.90;;;;;;5094479;28;20195;-70
2023/02/11 00:38:36;;;;;;;0.60;0.60;;;1.40;99.90;;;;;;5076046;28;20717;-71
2023/02/11 00:41:02;;;;;;;0.50;0.50;;;1.50;99.90;;;;;;5094106;28;20290;-71
2023/02/11 00:43:28;;;;;;;0.60;0.60;;;1.40;99.90;;;;;;5094079;28;20218;-71
2023/02/11 00:45:54;;;;;;;0.50;0.50;;;1.50;99.90;;;;;;5094449;28;20200;-70
2023/02/11 00:48:19;;;;;;;0.70;0.70;;;1.50;99.90;;;;;;5076037;28;20204;-71
2023/02/11 00:50:45;;;;;;;0.68;0.68;;;1.40;99.90;;;;;;5075925;28;20263;-71
2023/02/11 00:53:11;;;;;;;0.70;0.70;;;1.40;99.90;;;;;;5076203;28;20200;-70
2023/02/11 00:55:36;;;;;;;0.73;0.73;;;1.40;99.90;;;;;;5093764;28;20188;-71
2023/02/11 00:58:02;;;;;;;0.60;0.60;;;1.40;99.90;;;;;;5075634;28;20290;-70
2023/02/11 01:00:28;;;;;;;0.50;0.50;;;1.40;99.90;;;;;;5075699;28;20204;-71
2023/02/11 01:02:54;;;;;;;0.60;0.60;;;1.40;99.90;;;;;;5093251;28;20670;-71
2023/02/11 01:05:20;;;;;;;0.63;0.63;;;1.40;99.90;;;;;;5093817;28;20196;-71
2023/02/11 01:07:46;;;;;;;0.50;0.50;;;1.40;99.90;;;;;;5076045;28;20245;-69
2023/02/11 01:10:12;;;;;;;0.60;0.60;;;1.40;99.90;;;;;;5093624;28;20214;-70
2023/02/11 01:12:39;;;;;;;0.60;0.60;;;1.40;99.90;;;;;;5075419;28;20196;-71
2023/02/11 01:15:07;;;;;;;0.50;0.50;;;1.40;99.90;;;;;;5093533;28;20185;-70
2023/02/11 01:17:34;;;;;;;0.55;0.55;;;1.40;99.90;;;;;;5093159;28;20686;-70
2023/02/11 01:20:03;;;;;;;0.60;0.60;;;1.40;99.90;;;;;;5075193;28;20199;-71
2023/02/11 01:22:29;;;;;;;0.68;0.68;;;1.40;99.90;;;;;;5072778;28;20189;-72
2023/02/11 01:24:55;;;;;;;0.70;0.70;;;1.50;99.90;;;;;;5055231;28;20208;-71
2023/02/11 01:27:21;;;;;;;0.60;0.60;;;1.60;99.90;;;;;;5073016;28;20199;-70
2023/02/11 01:29:46;;;;;;;0.60;0.60;;;1.60;99.90;;;;;;5073005;28;20236;-70
2023/02/11 01:32:12;;;;;;;0.73;0.73;;;1.60;99.90;;;;;;5055222;28;20196;-71
2023/02/11 01:34:38;;;;;;;0.60;0.60;;;1.60;99.90;;;;;;5072929;28;20247;-71
2023/02/11 01:37:03;;;;;;;0.50;0.50;;;1.60;99.90;;;;;;5073182;28;20204;-71
2023/02/11 01:39:32;;;;;;;0.60;0.60;;;1.60;99.90;;;;;;5093060;28;20228;-71
2023/02/11 01:41:58;;;;;;;0.60;0.60;;;1.60;99.90;;;;;;5093175;28;20188;-70
2023/02/11 01:44:24;;;;;;;0.80;0.80;;;1.50;99.90;;;;;;5092939;28;20273;-70
2023/02/11 01:46:50;;;;;;;0.70;0.70;;;1.50;99.90;;;;;;5093326;28;20200;-71
2023/02/11 01:49:20;;;;;;;0.68;0.68;;;1.50;99.90;;;;;;5093032;28;20694;-70
2023/02/11 01:51:53;;;;;;;0.60;0.60;;;1.50;99.90;;;;;;5093074;28;20271;-70
2023/02/11 01:57:23;;;;;;;0.70;0.70;;;1.50;99.90;;;;;;5092981;28;20195;-70
2023/02/11 02:00:37;;;;;;;0.60;0.60;;;1.50;99.90;;;;;;5054809;28;20679;-71
2023/02/11 02:03:21;;;;;;;0.80;0.80;;;1.50;99.90;;;;;;5060194;22;20277;-67
2023/02/11 02:06:28;;;;;;;0.70;0.70;;;1.50;99.90;;;;;;5072476;28;20686;-67
2023/02/11 02:09:10;;;;;;;0.55;0.55;;;1.50;99.90;;;;;;5043694;28;20681;-68
2023/02/11 02:11:36;;;;;;;0.60;0.60;;;1.50;99.90;;;;;;5054212;28;20197;-67
2023/02/11 02:14:02;;;;;;;0.70;0.70;;;1.60;99.90;;;;;;5072336;28;20559;-68
2023/02/11 02:16:34;;;;;;;0.60;0.60;;;1.50;99.90;;;;;;5054158;28;20197;-68
2023/02/11 02:19:12;;;;;;;0.70;0.70;;;1.50;99.90;;;;;;5072289;28;20658;-68
2023/02/11 02:22:02;;;;;;;0.50;0.50;;;1.40;99.90;;;;;;5072159;28;20249;-68
2023/02/11 02:24:40;;;;;;;0.60;0.60;;;1.40;99.90;;;;;;5072153;28;20203;-68
2023/02/11 02:27:17;;;;;;;0.70;0.70;;;1.30;99.90;;;;;;5072270;28;20196;-68
2023/02/11 02:30:04;;;;;;;0.60;0.60;;;1.30;99.90;;;;;;5075057;28;20298;-68
2023/02/11 02:32:42;;;;;;;1.02;0.93;;;1.30;99.90;;;;;;5057711;28;20214;-68
2023/02/11 02:35:24;;;;;;;0.57;0.57;;;1.30;99.90;;;;;;5076174;28;20690;-68
2023/02/11 02:38:07;;;;;;;0.50;0.50;;;1.30;99.90;;;;;;5076127;28;20552;-68
2023/02/11 02:40:39;;;;;;;0.60;0.60;;;1.30;99.90;;;;;;5057851;28;20204;-68
2023/02/11 02:43:07;;;;;;;0.70;0.70;;;1.30;99.90;;;;;;5075902;28;20279;-67
2023/02/11 02:45:33;;;;;;;0.80;0.80;;;1.30;99.90;;;;;;5057881;28;20624;-68
2023/02/11 02:47:59;;;;;;;0.63;0.63;;;1.30;99.90;;;;;;5074590;28;20196;-67
2023/02/11 02:50:30;;;;;;;0.60;0.60;;;1.20;99.90;;;;;;5075757;28;20189;-68
2023/02/11 02:53:10;;;;;;;0.63;0.63;;;1.20;99.90;;;;;;5075894;28;20601;-68
2023/02/11 02:55:47;;;;;;;0.80;0.80;;;1.30;99.90;;;;;;5075402;28;20670;-67
2023/02/11 02:58:33;;;;;;;0.80;0.80;;;1.40;99.90;;;;;;5075728;28;20203;-68
2023/02/11 03:01:32;;;;;;;0.88;0.88;;;1.30;99.90;;;;;;5074360;28;20208;-68
2023/02/11 03:04:25;;;;;;;0.60;0.60;;;1.30;99.90;;;;;;5032053;28;20236;-67
2023/02/11 03:06:59;;;;;;;0.70;0.70;;;1.30;99.90;;;;;;5037657;28;20201;-67
2023/02/11 03:09:37;;;;;;;0.60;0.60;;;1.20;99.90;;;;;;5037522;28;20206;-68
2023/02/11 03:12:05;;;;;;;0.70;0.70;;;1.20;99.90;;;;;;5054290;28;20193;-67
2023/02/11 03:14:32;;;;;;;0.70;0.70;;;1.20;99.90;;;;;;5055316;28;20186;-68
2023/02/11 03:17:02;;;;;;;0.60;0.60;;;1.10;99.90;;;;;;5055401;28;20181;-67
2023/02/11 03:19:33;;;;;;;0.57;0.57;;;1.10;99.90;;;;;;5074253;28;20242;-67
2023/02/11 03:22:01;;;;;;;0.60;0.60;;;1.00;99.90;;;;;;5075375;28;20750;-67
2023/02/11 03:24:38;;;;;;;0.70;0.70;;;0.90;99.90;;;;;;5057340;28;20674;-67
2023/02/11 03:27:23;;;;;;;0.70;0.70;;;0.90;99.90;;;;;;5075285;28;20197;-67
2023/02/11 03:30:31;;;;;;;0.70;0.70;;;0.90;99.90;;;;;;5057006;28;20220;-66
2023/02/11 03:33:04;;;;;;;0.70;0.70;;;0.90;99.90;;;;;;5051913;28;20216;-67
2023/02/11 03:35:49;;;;;;;0.70;0.70;;;0.90;99.90;;;;;;5075008;28;20200;-68
2023/02/11 03:38:29;;;;;;;0.50;0.50;;;0.90;99.90;;;;;;5075107;28;20189;-67
2023/02/11 03:40:56;;;;;;;0.70;0.70;;;0.90;99.90;;;;;;5055680;28;20199;-67
2023/02/11 03:43:29;;;;;;;0.60;0.60;;;1.00;99.90;;;;;;5074849;28;20192;-67
2023/02/11 03:45:56;;;;;;;0.65;0.65;;;1.20;99.90;;;;;;5074976;28;20200;-67
2023/02/11 03:48:30;;;;;;;0.50;0.50;;;1.40;99.90;;;;;;5056708;28;20291;-67
2023/02/11 03:50:58;;;;;;;0.57;0.57;;;1.60;99.90;;;;;;5074685;28;20196;-67
2023/02/11 03:53:24;;;;;;;0.50;0.50;;;1.60;99.90;;;;;;5074599;28;20194;-67
2023/02/11 03:55:53;;;;;;;0.50;0.50;;;1.60;99.90;;;;;;5074735;28;20651;-67
2023/02/11 03:58:19;;;;;;;0.60;0.60;;;1.50;99.90;;;;;;5056644;28;20197;-69
2023/02/11 04:00:45;;;;;;;0.50;0.50;;;1.40;99.90;;;;;;5074437;28;20204;-67
2023/02/11 04:03:11;;;;;;;0.57;0.57;;;1.30;99.90;;;;;;5056468;28;20685;-68
2023/02/11 04:05:38;;;;;;;0.57;0.57;;;1.10;99.90;;;;;;5054303;28;20276;-68
2023/02/11 04:08:04;;;;;;;0.47;0.47;;;1.00;99.90;;;;;;5054520;28;20194;-68
2023/02/11 04:10:30;;;;;;;0.60;0.60;;;0.90;99.90;;;;;;5054327;28;20632;-69
2023/02/11 04:12:56;;;;;;;0.70;0.70;;;0.70;99.90;;;;;;5054429;28;20673;-68
2023/02/11 04:15:22;;;;;;;0.70;0.70;;;0.60;99.90;;;;;;5054176;28;20189;-68
2023/02/11 04:17:48;;;;;;;1.27;1.02;;;0.60;99.90;;;;;;5054279;28;20208;-67
2023/02/11 04:20:14;;;;;;;0.50;0.50;;;0.50;99.90;;;;;;5054221;28;20655;-67
2023/02/11 04:22:40;;;;;;;0.60;0.60;;;0.60;99.90;;;;;;5054054;28;20651;-67
2023/02/11 04:25:07;;;;;;;0.68;0.68;;;0.60;99.90;;;;;;5065672;28;20207;-68
2023/02/11 04:27:32;;;;;;;0.60;0.60;;;0.60;99.90;;;;;;5073834;28;20208;-68
2023/02/11 04:29:58;;;;;;;0.63;0.63;;;0.60;99.90;;;;;;5073851;28;20201;-67
2023/02/11 04:32:24;;;;;;;0.52;0.52;;;0.50;99.90;;;;;;5084594;28;20690;-68
2023/02/11 04:34:50;;;;;;;0.60;0.60;;;0.60;99.90;;;;;;5094201;28;20188;-67
2023/02/11 04:37:16;;;;;;;0.60;0.60;;;0.60;99.90;;;;;;5094111;28;20192;-68
2023/02/11 04:39:42;;;;;;;0.60;0.60;;;0.60;99.90;;;;;;5093916;28;20558;-68
2023/02/11 04:42:07;;;;;;;0.50;0.50;;;0.60;99.90;;;;;;5094140;28;20192;-68
2023/02/11 04:44:33;;;;;;;0.70;0.70;;;0.80;99.90;;;;;;5093853;28;20207;-68
2023/02/11 04:46:59;;;;;;;0.60;0.60;;;0.70;99.90;;;;;;5068606;28;20193;-67
2023/02/11 04:49:25;;;;;;;0.70;0.70;;;0.70;99.90;;;;;;5073430;28;20201;-68
2023/02/11 04:51:50;;;;;;;0.60;0.60;;;1.00;99.90;;;;;;5073208;28;20188;-68
2023/02/11 04:54:17;;;;;;;0.50;0.50;;;1.00;99.90;;;;;;5073559;28;20641;-69
2023/02/11 04:56:42;;;;;;;0.60;0.60;;;1.10;99.90;;;;;;5073305;28;20626;-67
2023/02/11 04:59:08;;;;;;;0.60;0.60;;;1.20;99.90;;;;;;5073786;28;20192;-69
2023/02/11 05:01:34;;;;;;;0.70;0.70;;;1.20;99.90;;;;;;5072669;28;20204;-69
2023/02/11 05:04:00;;;;;;;0.63;0.63;;;1.10;99.90;;;;;;5073200;28;20225;-68
2023/02/11 05:06:25;;;;;;;0.50;0.50;;;1.20;99.90;;;;;;5055171;28;20215;-68
2023/02/11 05:08:51;;;;;;;0.55;0.55;;;1.20;99.90;;;;;;5073233;28;20728;-68
2023/02/11 05:11:19;;;;;;;0.50;0.50;;;1.30;99.90;;;;;;5073151;28;20197;-68
2023/02/11 05:13:46;;;;;;;0.60;0.60;;;1.20;99.90;;;;;;5055388;28;20200;-68
2023/02/11 05:16:12;;;;;;;0.60;0.60;;;1.30;99.90;;;;;;5073045;28;20557;-69
2023/02/11 05:18:39;;;;;;;0.55;0.55;;;1.20;99.90;;;;;;5054939;28;20825;-69
2023/02/11 05:21:07;;;;;;;0.60;0.60;;;1.10;99.90;;;;;;5072909;28;20193;-69
2023/02/11 05:23:33;;;;;;;0.50;0.50;;;1.10;99.90;;;;;;5072850;28;20189;-69
2023/02/11 05:25:59;;;;;;;0.52;0.52;;;1.30;99.90;;;;;;5072748;28;20192;-68
2023/02/11 05:28:25;;;;;;;0.60;0.60;;;1.50;99.90;;;;;;5063384;28;20256;-68
2023/02/11 05:30:52;;;;;;;0.68;0.68;;;1.70;99.90;;;;;;5093125;28;20300;-69
2023/02/11 05:33:18;;;;;;;0.43;0.43;;;1.80;99.90;;;;;;5093143;28;20212;-69
2023/02/11 05:35:44;;;;;;;0.55;0.55;;;1.80;99.90;;;;;;5092975;28;20195;-69
2023/02/11 05:38:09;;;;;;;0.60;0.60;;;1.90;99.90;;;;;;5093127;28;20603;-68
2023/02/11 05:40:36;;;;;;;0.60;0.60;;;2.00;99.90;;;;;;5092810;28;20195;-69
2023/02/11 05:43:01;;;;;;;0.60;0.60;;;2.10;99.90;;;;;;5087906;28;20673;-68
2023/02/11 05:45:28;;;;;;;0.55;0.55;;;2.10;99.90;;;;;;5072675;28;20267;-70
2023/02/11 05:47:54;;;;;;;0.60;0.60;;;2.10;99.90;;;;;;5072631;28;20246;-68
2023/02/11 05:50:20;;;;;;;0.80;0.80;;;2.10;99.90;;;;;;5054568;28;20197;-68
2023/02/11 05:52:46;;;;;;;0.50;0.50;;;2.20;99.90;;;;;;5072649;28;20192;-68
2023/02/11 05:55:12;;;;;;;0.82;0.82;;;2.10;99.90;;;;;;5071296;28;20197;-69
2023/02/11 05:57:37;;;;;;;0.68;0.68;;;2.10;99.90;;;;;;5072490;28;20193;-68
2023/02/11 06:00:04;;;;;;;0.70;0.70;;;2.00;99.90;;;;;;5072647;28;20197;-68
2023/02/11 06:02:30;;;;;;;0.50;0.50;;;1.90;99.90;;;;;;5071530;28;20281;-69
2023/02/11 06:04:55;;;;;;;0.80;0.80;;;1.90;99.90;;;;;;5072135;28;20662;-68
2023/02/11 06:07:21;;;;;;;0.60;0.60;;;1.90;99.90;;;;;;5054344;28;20689;-69
2023/02/11 06:09:47;;;;;;;0.70;0.70;;;1.80;99.90;;;;;;5072441;28;20244;-68
2023/02/11 06:12:13;;;;;;;0.55;0.55;;;1.80;99.90;;;;;;5072496;28;20334;-69
2023/02/11 06:14:38;;;;;;;0.70;0.70;;;1.60;99.90;;;;;;5054235;28;20725;-72
2023/02/11 06:17:04;;;;;;;0.70;0.70;;;1.50;99.90;;;;;;5072318;28;20258;-71
2023/02/11 06:19:30;;;;;;;0.60;0.60;;;1.50;99.90;;;;;;5054217;28;20231;-68
2023/02/11 06:21:56;;;;;;;0.52;0.52;;;1.40;99.90;;;;;;5072124;28;20200;-71
2023/02/11 06:24:22;;;;;;;1.85;1.50;;;1.50;99.90;;;;;;5078121;28;20215;-69
2023/02/11 06:26:48;;;;;;;0.60;0.60;;;1.50;99.90;;;;;;5092407;28;20200;-69
2023/02/11 06:29:14;;;;;;;0.60;0.60;;;1.50;99.90;;;;;;5092361;28;20208;-69
2023/02/11 06:31:40;;;;;;;0.70;0.70;;;1.40;99.90;;;;;;5092297;28;20215;-68
2023/02/11 06:34:12;;;;;;;0.70;0.70;;;1.50;99.90;;;;;;5074323;28;20197;-69
2023/02/11 06:36:39;;;;;;;0.63;0.63;;;1.40;99.90;;;;;;5092205;28;20200;-69
2023/02/11 06:39:06;;;;;;;0.70;0.70;;;1.40;99.90;;;;;;5092395;28;20527;-71
2023/02/11 06:41:32;;;;;;;0.57;0.57;;;1.40;99.90;;;;;;5092209;28;20207;-70
2023/02/11 06:43:58;;;;;;;0.65;0.65;;;1.40;99.90;;;;;;5079157;28;20224;-69
2023/02/11 06:46:24;;;;;;;0.60;0.60;;;1.30;99.90;;;;;;5071965;28;20695;-68
2023/02/11 06:48:49;;;;;;;0.60;0.60;;;1.30;99.90;;;;;;5072130;28;20211;-69
2023/02/11 06:51:15;;;;;;;0.70;0.70;;;1.20;99.90;;;;;;5072137;28;20197;-70
2023/02/11 06:53:44;;;;;;;0.60;0.60;;;1.20;99.90;;;;;;5071885;28;20197;-69
2023/02/11 06:56:13;;;;;;;0.60;0.60;;;1.20;99.90;;;;;;5072197;28;20180;-68
2023/02/11 06:58:39;;;;;;;0.60;0.60;;;1.20;99.90;;;;;;5071841;28;20690;-69
2023/02/11 07:01:11;;;;;;;0.60;0.60;;;1.20;99.90;;;;;;5071805;28;20200;-69
2023/02/11 07:03:39;;;;;;;0.70;0.70;;;1.20;99.90;;;;;;5030346;28;20272;-69
2023/02/11 07:06:06;;;;;;;0.60;0.60;;;1.20;99.90;;;;;;5032000;28;20201;-69
2023/02/11 07:08:34;;;;;;;0.60;0.60;;;1.20;99.90;;;;;;5031878;28;20233;-70
2023/02/11 07:11:00;;;;;;;0.90;0.90;;;1.20;99.90;;;;;;5031968;28;20222;-68
2023/02/11 07:13:26;;;;;;;0.60;0.60;;;1.20;99.90;;;;;;5039851;28;20190;-68
2023/02/11 07:15:52;;;;;;;0.70;0.70;;;1.20;99.90;;;;;;5053453;28;20229;-69
2023/02/11 07:18:18;;;;;;;0.70;0.70;;;1.20;99.90;;;;;;5055200;28;20201;-68
2023/02/11 07:20:44;;;;;;;1.00;1.00;;;1.10;99.90;;;;;;5062096;28;20216;-69
2023/02/11 07:23:09;;;;;;;0.60;0.60;;;1.10;99.90;;;;;;5075311;28;20192;-69
2023/02/11 07:25:35;;;;;;;1.42;1.33;;;1.10;99.90;;;;;;5074980;28;20196;-70
2023/02/11 07:28:02;;;;;;;0.75;0.75;;;1.20;99.90;;;;;;5075144;28;20647;-69
2023/02/11 07:30:28;;;;;;;0.60;0.60;;;1.10;99.90;;;;;;5074986;28;20184;-67
2023/02/11 07:32:55;;;;;;;0.45;0.45;;;1.10;99.90;;;;;;5075039;28;20673;-71
2023/02/11 07:35:21;;;;;;;0.60;0.60;;;1.10;99.90;;;;;;5074940;28;20189;-71
2023/02/11 07:37:46;;;;;;;0.70;0.70;;;1.10;99.90;;;;;;5036390;28;20213;-69
2023/02/11 07:40:12;;;;;;;0.60;0.60;;;1.10;99.90;;;;;;5033736;28;20252;-69
2023/02/11 07:42:39;;;;;;;2.33;2.13;;;1.10;99.90;;;;;;5035271;28;20667;-69
2023/02/11 07:45:08;;;;;;;0.90;0.90;;;1.10;99.90;;;;;;5054838;28;20270;-69
2023/02/11 07:47:34;;;;;;;0.70;0.70;;;1.00;99.90;;;;;;5053430;28;20331;-69
2023/02/11 07:50:00;;;;;;;0.68;0.68;;;1.00;99.90;;;;;;5054639;28;20288;-69
2023/02/11 07:52:29;;;;;;;0.90;0.90;;;1.00;99.90;;;;;;5054575;28;20298;-69
2023/02/11 07:54:55;;;;;;;0.90;0.90;;;1.00;99.90;;;;;;5054546;28;20709;-69
2023/02/11 07:57:20;;;;;;;0.60;0.60;;;1.00;99.90;;;;;;5054524;28;20189;-69
2023/02/11 07:59:46;;;;;;;0.70;0.70;;;0.90;99.90;;;;;;5054522;28;20193;-69
2023/02/11 08:02:12;;;;;;;0.77;0.77;;;1.00;99.90;;;;;;5056774;28;20592;-69
2023/02/11 08:04:37;;;;;;;2.05;1.05;;;1.00;99.90;;;;;;5073031;28;20216;-69
2023/02/11 08:07:03;;;;;;;0.75;0.75;;;1.00;99.90;;;;;;5074551;28;20262;-70
2023/02/11 08:09:30;;;;;;;3.50;1.08;;;1.00;99.90;;;;;;5055912;28;20208;-70
2023/02/11 08:11:55;;;;;;;0.70;0.70;;;1.00;99.90;;;;;;5074395;28;20188;-69
2023/02/11 08:14:21;;;;;;;0.60;0.60;;;1.00;99.90;;;;;;5073920;28;20546;-69
2023/02/11 08:16:47;;;;;;;0.60;0.60;;;1.10;99.90;;;;;;5079729;28;20196;-68
2023/02/11 08:19:15;;;;;;;0.60;0.60;;;1.10;99.90;;;;;;5076342;28;20200;-70
2023/02/11 08:21:41;;;;;;;0.50;0.50;;;1.20;99.90;;;;;;5076005;28;20287;-69
2023/02/11 08:24:07;;;;;;;0.60;0.60;;;1.20;99.90;;;;;;5094470;28;20192;-69
2023/02/11 08:26:34;;;;;;;0.80;0.80;;;1.20;99.90;;;;;;5093289;28;20537;-69
2023/02/11 08:29:04;;;;;;;1.00;1.00;;;1.20;99.90;;;;;;5075868;28;20705;-69
2023/02/11 08:31:33;;;;;;;0.68;0.68;;;1.20;99.90;;;;;;5094070;28;20714;-70
2023/02/11 08:34:01;;;;;;;1.20;1.15;;;1.20;99.90;;;;;;5057299;28;20270;-69
2023/02/11 08:36:33;;;;;;;0.70;0.70;;;1.20;99.90;;;;;;5073726;28;20234;-69
2023/02/11 08:39:04;;;;;;;1.40;1.30;;;1.20;99.90;;;;;;5055865;28;20223;-69
2023/02/11 08:41:31;;;;;;;0.70;0.70;;;1.20;99.90;;;;;;5073641;28;20655;-70
2023/02/11 08:43:57;;;;;;;0.60;0.60;;;1.20;99.90;;;;;;5073687;28;20199;-69
2023/02/11 08:46:23;;;;;;;0.70;0.70;;;1.20;99.90;;;;;;5073541;28;20224;-69
2023/02/11 08:48:49;;;;;;;0.70;0.70;;;1.20;99.90;;;;;;5055776;28;20216;-69
2023/02/11 08:51:26;;;;;;;0.50;0.50;;;1.20;99.90;;;;;;5055672;28;20203;-69
2023/02/11 08:53:53;;;;;;;0.60;0.60;;;1.30;99.90;;;;;;5073553;28;20659;-69
2023/02/11 08:56:22;;;;;;;0.60;0.60;;;1.30;99.90;;;;;;5055747;28;20189;-69
2023/02/11 08:58:48;;;;;;;0.80;0.80;;;1.30;99.90;;;;;;5073617;28;20193;-69
2023/02/11 09:01:20;;;;;;;0.65;0.65;;;1.40;99.90;;;;;;5073153;28;20231;-69
2023/02/11 09:03:46;;;;;;;0.60;0.60;;;1.40;99.90;;;;;;5073122;28;20229;-69
2023/02/11 09:06:13;;;;;;;0.70;0.70;;;1.40;99.90;;;;;;5073256;28;20197;-69
2023/02/11 09:08:41;;;;;;;0.68;0.68;;;1.50;99.90;;;;;;5073150;28;20215;-70
2023/02/11 09:11:09;;;;;;;0.63;0.63;;;1.60;99.90;;;;;;5073100;28;20590;-69
2023/02/11 09:13:35;;;;;;;0.60;0.60;;;1.70;99.90;;;;;;5065131;28;20210;-68
2023/02/11 09:16:03;;;;;;;0.57;0.57;;;1.80;99.90;;;;;;5093580;28;20184;-69
2023/02/11 09:18:29;;;;;;;1.23;1.17;;;1.90;99.90;;;;;;5075046;28;20235;-69
2023/02/11 09:21:06;;;;;;;1.58;1.00;;;2.00;99.90;;;;;;5093401;28;20250;-69
2023/02/11 09:23:33;;;;;;;0.57;0.57;;;2.10;99.90;;;;;;5093188;28;20669;-69
2023/02/11 09:26:14;;;;;;;0.50;0.50;;;2.10;99.90;;;;;;5093368;28;20238;-69
2023/02/11 09:28:40;;;;;;;0.60;0.60;;;2.30;99.90;;;;;;5093066;28;20699;-70
2023/02/11 09:31:10;;;;;;;0.70;0.70;;;2.40;99.90;;;;;;5093400;28;20199;-69
2023/02/11 09:33:37;;;;;;;0.68;0.68;;;2.50;99.90;;;;;;5093087;28;20261;-69
2023/02/11 09:36:05;;;;;;;0.77;0.77;;;2.60;99.90;;;;;;5093236;28;20184;-69
2023/02/11 09:38:31;;;;;;;0.57;0.57;;;2.70;99.90;;;;;;5074705;28;20203;-70
2023/02/11 09:40:57;;;;;;;0.55;0.55;;;2.80;99.90;;;;;;5055665;28;20568;-69
2023/02/11 09:43:38;;;;;;;0.70;0.70;;;2.80;99.90;;;;;;5054737;28;20193;-69
2023/02/11 09:46:04;;;;;;;0.60;0.60;;;2.80;99.90;;;;;;5054929;28;20192;-69
2023/02/11 09:48:38;;;;;;;0.70;0.70;;;2.80;99.90;;;;;;5072531;28;20251;-71
2023/02/11 09:51:05;;;;;;;0.70;0.70;;;3.00;99.90;;;;;;5072821;28;20647;-69
2023/02/11 09:53:39;;;;;;;0.68;0.68;;;3.10;99.90;;;;;;5054586;28;20553;-70
2023/02/11 09:56:12;;;;;;;0.50;0.50;;;3.30;99.90;;;;;;5072761;28;20596;-69
2023/02/11 09:58:42;;;;;;;0.52;0.52;;;3.30;99.90;;;;;;5072647;28;20700;-70
2023/02/11 10:01:36;;;;;;;2.05;1.42;;;3.50;99.90;;;;;;5054272;28;20197;-70
2023/02/11 10:04:47;;;;;;;1.52;1.42;;;3.50;99.90;;;;;;5072740;28;20260;-69
2023/02/11 10:07:27;;;;;;;1.30;1.20;;;3.50;99.90;;;;;;5044578;28;20324;-71
2023/02/11 10:10:34;;;;;;;0.80;0.80;;;3.60;99.90;;;;;;5050271;28;20629;-70
2023/02/11 10:13:36;;;;;;;0.70;0.70;;;3.50;99.90;;;;;;5062881;28;20577;-70
2023/02/11 10:16:32;;;;;;;0.60;0.60;;;3.30;99.90;;;;;;5092751;28;20666;-70
2023/02/11 10:19:45;;;;;;;0.82;0.82;;;3.20;99.90;;;;;;5092678;28;20283;-70
2023/02/11 10:22:40;;;;;;;0.70;0.70;;;3.30;99.90;;;;;;5065166;28;20208;-72
2023/02/11 10:25:17;;;;;;;0.60;0.60;;;3.40;99.90;;;;;;5092614;28;20192;-70
2023/02/11 10:27:43;;;;;;;0.60;0.60;;;3.50;99.90;;;;;;5092729;28;20616;-70
2023/02/11 10:30:15;;;;;;;0.65;0.65;;;3.50;99.90;;;;;;5092587;28;20212;-70
2023/02/11 10:32:50;;;;;;;0.52;0.52;;;3.40;99.90;;;;;;5092316;28;20200;-71
2023/02/11 10:35:20;;;;;;;0.73;0.73;;;3.30;99.90;;;;;;5089441;28;20199;-71
2023/02/11 10:37:46;;;;;;;1.10;1.00;;;3.40;99.90;;;;;;5072318;28;20585;-70
2023/02/11 10:40:18;;;;;;;0.60;0.60;;;3.50;99.90;;;;;;5072334;28;20204;-69
2023/02/11 10:42:48;;;;;;;0.60;0.60;;;3.70;99.90;;;;;;5054171;28;20235;-70
2023/02/11 10:45:41;;;;;;;0.70;0.70;;;3.60;99.90;;;;;;5072216;28;20193;-71
2023/02/11 10:48:38;;;;;;;0.90;0.90;;;3.60;99.90;;;;;;5071607;28;20705;-70
2023/02/11 10:51:23;;;;;;;0.60;0.60;;;3.60;99.90;;;;;;5057632;28;20288;-70
2023/02/11 10:54:04;;;;;;;0.70;0.70;;;3.50;99.90;;;;;;5075644;28;20212;-70
2023/02/11 10:56:33;;;;;;;0.70;0.70;;;3.60;99.90;;;;;;5075681;28;20196;-71
2023/02/11 10:59:06;;;;;;;0.60;0.60;;;3.70;99.90;;;;;;5057745;28;20202;-71
2023/02/11 11:01:46;;;;;;;0.98;0.98;;;3.80;99.90;;;;;;5071384;28;20193;-70
2023/02/11 11:04:31;;;;;;;0.70;0.70;;;3.70;99.90;;;;;;5054340;28;20240;-71
2023/02/11 11:07:11;;;;;;;1.23;1.13;;;3.70;99.90;;;;;;5090165;28;20301;-70
2023/02/11 11:09:53;;;;;;;1.25;1.15;;;3.60;99.90;;;;;;5095691;28;20682;-70
2023/02/11 11:12:35;;;;;;;0.60;0.60;;;3.70;99.90;;;;;;5095779;28;20184;-74
2023/02/11 11:15:10;;;;;;;0.50;0.50;;;4.00;99.90;;;;;;5095822;28;20685;-70
2023/02/11 11:17:36;;;;;;;0.60;0.60;;;4.20;99.90;;;;;;5095527;28;20187;-71
2023/02/11 11:20:23;;;;;;;0.60;0.60;;;4.40;99.90;;;;;;5095772;28;20224;-70
2023/02/11 11:22:51;;;;;;;0.50;0.50;;;4.70;99.90;;;;;;5077508;28;20207;-70
2023/02/11 11:25:26;;;;;;;0.90;0.90;;;4.80;99.90;;;;;;5095965;28;20257;-70
2023/02/11 11:27:56;;;;;;;0.80;0.80;;;4.80;99.90;;;;;;5095512;28;20214;-71
2023/02/11 11:30:25;;;;;;;0.90;0.90;;;4.60;99.90;;;;;;5095267;28;20212;-70
2023/02/11 11:32:51;;;;;;;0.80;0.80;;;4.60;99.90;;;;;;5081088;28;20651;-70
2023/02/11 11:35:29;;;;;;;0.63;0.63;;;4.60;99.90;;;;;;5075135;28;20196;-70
2023/02/11 11:38:02;;;;;;;0.63;0.63;;;4.50;99.90;;;;;;5075190;28;20180;-70
2023/02/11 11:40:33;;;;;;;0.68;0.68;;;4.50;99.90;;;;;;5074923;28;20189;-70
2023/02/11 11:43:13;;;;;;;2.22;1.38;;;4.30;99.90;;;;;;5075090;28;20208;-70
2023/02/11 11:45:51;;;;;;;0.70;0.70;;;4.10;99.90;;;;;;5074815;28;20222;-71
2023/02/11 11:48:33;;;;;;;0.70;0.70;;;4.00;99.90;;;;;;5074897;28;20543;-71
2023/02/11 11:51:03;;;;;;;0.70;0.70;;;3.90;99.90;;;;;;5074994;28;20196;-71
2023/02/11 11:53:35;;;;;;;0.70;0.70;;;3.90;99.90;;;;;;5056721;28;20197;-70
2023/02/11 11:56:06;;;;;;;0.60;0.60;;;3.90;99.90;;;;;;5056710;28;20204;-70
2023/02/11 11:58:32;;;;;;;0.63;0.63;;;3.60;99.90;;;;;;5074357;28;20199;-70
2023/02/11 12:01:28;;;;;;;0.52;0.52;;;3.70;99.90;;;;;;5073404;28;20197;-72
2023/02/11 12:04:31;;;;;;;0.60;0.60;;;3.70;99.90;;;;;;5074407;28;20225;-70
2023/02/11 12:07:25;;;;;;;0.70;0.70;;;3.50;99.90;;;;;;5056556;28;20225;-71
2023/02/11 12:10:18;;;;;;;0.70;0.70;;;3.40;99.90;;;;;;5056465;28;20216;-70
2023/02/11 12:13:08;;;;;;;0.60;0.60;;;3.50;99.90;;;;;;5056459;28;20659;-71
2023/02/11 12:15:36;;;;;;;1.15;1.08;;;3.60;99.90;;;;;;5056242;28;20201;-70
2023/02/11 12:18:02;;;;;;;0.60;0.60;;;3.70;99.90;;;;;;5056476;28;20221;-70
2023/02/11 12:20:49;;;;;;;0.60;0.60;;;3.80;99.90;;;;;;5074169;28;20690;-70
2023/02/11 12:23:34;;;;;;;0.63;0.63;;;3.80;99.90;;;;;;5074277;28;20287;-71
2023/02/11 12:26:20;;;;;;;0.68;0.68;;;3.80;99.90;;;;;;5056230;28;20197;-70
2023/02/11 12:29:05;;;;;;;0.70;0.70;;;3.80;99.90;;;;;;5073989;28;20222;-71
2023/02/11 12:31:34;;;;;;;0.70;0.70;;;3.80;99.90;;;;;;5073732;28;20215;-70
2023/02/11 12:34:53;;;;;;;0.50;0.50;;;3.70;99.90;;;;;;5073988;28;20188;-70
2023/02/11 12:38:02;;;;;;;0.70;0.70;;;3.60;99.90;;;;;;5031805;28;20684;-71
2023/02/11 12:41:00;;;;;;;0.60;0.60;;;3.60;99.90;;;;;;5073637;28;20199;-70
2023/02/11 12:43:36;;;;;;;0.68;0.68;;;3.50;99.90;;;;;;5073595;28;20660;-70
2023/02/11 12:46:38;;;;;;;0.68;0.68;;;3.50;99.90;;;;;;5055848;28;20249;-70
2023/02/11 12:49:32;;;;;;;0.65;0.65;;;3.40;99.90;;;;;;5073630;28;20204;-70
2023/02/11 12:52:10;;;;;;;0.60;0.60;;;3.40;99.90;;;;;;5073638;28;20189;-70
2023/02/11 12:54:48;;;;;;;0.60;0.60;;;3.40;99.90;;;;;;5073125;28;20192;-70
2023/02/11 12:57:43;;;;;;;0.68;0.68;;;3.40;99.90;;;;;;5055539;28;20283;-70
2023/02/11 13:00:44;;;;;;;0.70;0.70;;;3.50;99.90;;;;;;5035677;28;20225;-70
2023/02/11 13:03:35;;;;;;;0.60;0.60;;;3.50;99.90;;;;;;5069505;28;20224;-70
2023/02/11 13:06:12;;;;;;;0.55;0.55;;;3.50;99.90;;;;;;5073422;28;20258;-70
2023/02/11 13:08:44;;;;;;;0.60;0.60;;;3.50;99.90;;;;;;5055148;28;20234;-70
2023/02/11 13:11:13;;;;;;;1.10;1.02;;;3.50;99.90;;;;;;5073379;28;20268;-70
2023/02/11 13:13:47;;;;;;;0.63;0.63;;;3.50;99.90;;;;;;5054764;28;20674;-72
2023/02/11 13:16:38;;;;;;;1.20;1.10;;;3.50;99.90;;;;;;5073237;28;20204;-72
2023/02/11 13:19:07;;;;;;;0.90;0.90;;;3.50;99.90;;;;;;5073266;28;20303;-70
2023/02/11 13:21:48;;;;;;;0.70;0.70;;;3.50;99.90;;;;;;5055009;28;20575;-71
2023/02/11 13:24:35;;;;;;;0.60;0.60;;;3.50;99.90;;;;;;5071848;28;20269;-70
2023/02/11 13:27:31;;;;;;;0.60;0.60;;;3.40;99.90;;;;;;5073046;28;20201;-70